Terminal Aerodrome Forecast
Issued by NWS

Home | Current Version | Previous Version | Text Only | Print | Product List | Glossary On
Versions: 1 2 3 4 5 6 7 8 9 10 11 12 13 14 15 16 17 18 19 20 21 22 23 24 25
228
FTUS41 KGYX 250231 AAA
TAFRKD
TAF AMD
KRKD 250231Z 2503/2524 03011G18KT 5SM -RA BR OVC004
     FM250900 36014KT 3SM -DZ BR OVC010
     FM251500 33011KT P6SM OVC008
     FM251800 32010KT P6SM BKN020=

USA.gov is the U.S. government's official web portal to all federal, state and local government web resources and services.